Time;durP1;ratioP1;P1;durP2;ratioP2;P2;SDS_P1;SDS_P2;PMS_P1;PMS_P2;Temp;Humidity;BMP_temperature;BMP_pressure;BME280_temperature;BME280_humidity;BME280_pressure;Samples;Min_cycle;Max_cycle;Signal;HPM_P1;HPM_P2
2022/06/27 00:01:19;;;;;;;5.90;5.33;;;23.70;99.90;;;;;;6225840;28;20229;-65
2022/06/27 00:04:22;;;;;;;5.30;4.80;;;23.60;99.90;;;;;;6239284;28;20244;-65
2022/06/27 00:07:26;;;;;;;6.07;5.67;;;23.60;99.90;;;;;;6222280;28;20557;-65
2022/06/27 00:10:29;;;;;;;5.80;5.30;;;23.60;99.90;;;;;;6213991;28;20240;-65
2022/06/27 00:13:34;;;;;;;6.33;5.83;;;23.60;99.90;;;;;;6233976;28;20238;-64
2022/06/27 00:16:37;;;;;;;6.00;5.50;;;23.60;99.90;;;;;;6250913;28;20228;-62
2022/06/27 00:19:56;;;;;;;7.03;5.33;;;23.50;99.90;;;;;;6233755;28;20706;-62
2022/06/27 00:23:00;;;;;;;5.83;5.33;;;23.50;99.90;;;;;;6243113;28;20228;-64
2022/06/27 00:26:03;;;;;;;5.83;5.10;;;23.40;99.90;;;;;;6232709;28;20241;-65
2022/06/27 00:29:08;;;;;;;5.97;5.37;;;23.40;99.90;;;;;;6244496;28;20243;-65
2022/06/27 00:32:11;;;;;;;5.20;4.90;;;23.30;99.90;;;;;;6231452;28;20657;-65
2022/06/27 00:35:14;;;;;;;6.20;5.60;;;23.30;99.90;;;;;;6245581;28;20325;-65
2022/06/27 00:38:18;;;;;;;5.53;5.17;;;23.30;99.90;;;;;;6229865;28;20260;-65
2022/06/27 00:41:21;;;;;;;4.97;4.57;;;23.20;99.90;;;;;;6245851;28;20224;-65
2022/06/27 00:44:33;;;;;;;9.23;5.30;;;23.20;99.90;;;;;;6219865;28;20671;-65
2022/06/27 00:47:36;;;;;;;7.77;5.30;;;23.20;99.90;;;;;;6248496;28;20236;-66
2022/06/27 00:50:40;;;;;;;6.20;5.60;;;23.20;99.90;;;;;;6258094;28;20228;-64
2022/06/27 00:53:44;;;;;;;5.10;4.80;;;23.00;99.90;;;;;;6258169;28;20246;-65
2022/06/27 00:56:47;;;;;;;5.73;5.27;;;23.00;99.90;;;;;;6258390;28;20239;-64
2022/06/27 00:59:51;;;;;;;6.53;5.73;;;23.00;99.90;;;;;;6233882;28;20239;-65
2022/06/27 01:02:55;;;;;;;5.90;5.30;;;22.90;99.90;;;;;;6228489;28;20225;-65
2022/06/27 01:05:58;;;;;;;6.07;4.70;;;22.90;99.90;;;;;;6232429;28;20577;-65
2022/06/27 01:09:01;;;;;;;6.30;5.80;;;22.90;99.90;;;;;;6230713;28;20201;-66
2022/06/27 01:12:05;;;;;;;5.13;4.83;;;22.90;99.90;;;;;;6234964;28;20224;-66
2022/06/27 01:15:11;;;;;;;7.83;5.60;;;22.90;99.90;;;;;;6257661;28;20219;-65
2022/06/27 01:18:15;;;;;;;6.47;5.97;;;22.80;99.90;;;;;;6238436;28;20245;-64
2022/06/27 01:21:22;;;;;;;9.30;5.80;;;22.80;99.90;;;;;;6214382;28;21963;-64
2022/06/27 01:24:28;;;;;;;6.17;5.50;;;22.80;99.90;;;;;;6253424;28;20245;-64
2022/06/27 01:27:31;;;;;;;6.07;5.57;;;22.80;99.90;;;;;;6232533;28;20231;-64
2022/06/27 01:30:35;;;;;;;7.00;4.67;;;22.80;99.90;;;;;;6246464;28;20228;-65
2022/06/27 01:33:38;;;;;;;6.30;5.80;;;22.60;99.90;;;;;;6239169;28;20339;-67
2022/06/27 01:36:44;;;;;;;6.60;5.33;;;22.70;99.90;;;;;;6250792;28;20224;-67
2022/06/27 01:39:49;;;;;;;5.80;5.40;;;22.60;99.90;;;;;;6240457;28;20267;-63
2022/06/27 01:42:52;;;;;;;5.47;5.07;;;22.60;99.90;;;;;;6249324;28;20555;-63
2022/06/27 01:45:55;;;;;;;5.57;5.07;;;22.60;99.90;;;;;;6231650;28;20231;-62
2022/06/27 01:48:58;;;;;;;6.00;5.53;;;22.60;99.90;;;;;;6257102;28;20239;-63
2022/06/27 01:52:02;;;;;;;5.60;5.17;;;22.50;99.90;;;;;;6257518;28;20247;-63
2022/06/27 01:55:10;;;;;;;5.40;5.00;;;22.50;99.90;;;;;;6247164;28;20268;-62
2022/06/27 01:58:14;;;;;;;6.17;5.67;;;22.50;99.90;;;;;;6227487;28;20217;-63
2022/06/27 02:01:17;;;;;;;5.70;5.20;;;22.50;99.90;;;;;;6218568;28;20240;-63
2022/06/27 02:04:21;;;;;;;5.70;5.30;;;22.50;99.90;;;;;;6218391;28;20237;-61
2022/06/27 02:07:24;;;;;;;6.10;5.70;;;22.50;99.90;;;;;;6217740;28;20226;-62
2022/06/27 02:10:29;;;;;;;6.93;5.90;;;22.50;99.90;;;;;;6216711;28;20340;-62
2022/06/27 02:13:34;;;;;;;5.50;5.00;;;22.40;99.90;;;;;;6214918;28;20249;-62
2022/06/27 02:16:38;;;;;;;6.13;5.60;;;22.40;99.90;;;;;;6217870;28;20240;-62
2022/06/27 02:19:42;;;;;;;5.63;5.20;;;22.40;99.90;;;;;;6228252;28;20552;-63
2022/06/27 02:22:45;;;;;;;7.00;6.03;;;22.30;99.90;;;;;;6213032;28;20238;-62
2022/06/27 02:25:50;;;;;;;5.27;4.87;;;22.30;99.90;;;;;;6219807;28;20244;-62
2022/06/27 02:28:54;;;;;;;5.83;5.43;;;22.30;99.90;;;;;;6228349;28;20235;-62
2022/06/27 02:32:00;;;;;;;7.70;5.40;;;22.20;99.90;;;;;;6210985;28;20678;-62
2022/06/27 02:35:05;;;;;;;5.40;5.10;;;22.10;99.90;;;;;;6221390;28;20236;-62
2022/06/27 02:38:11;;;;;;;7.13;6.50;;;22.10;99.90;;;;;;6228055;28;20233;-62
2022/06/27 02:41:18;;;;;;;5.60;5.20;;;22.10;99.90;;;;;;6209508;28;20233;-62
2022/06/27 02:44:22;;;;;;;5.70;5.20;;;22.10;99.90;;;;;;6223758;28;20229;-61
2022/06/27 02:47:27;;;;;;;5.87;5.47;;;22.00;99.90;;;;;;6207454;28;20586;-62
2022/06/27 02:50:33;;;;;;;6.33;5.07;;;22.00;99.90;;;;;;6215442;28;20233;-61
2022/06/27 02:53:43;;;;;;;5.83;5.50;;;21.90;99.90;;;;;;6227809;28;20316;-61
2022/06/27 02:56:57;;;;;;;6.50;5.87;;;21.90;99.90;;;;;;6204321;28;20234;-62
2022/06/27 03:00:02;;;;;;;5.77;5.37;;;21.90;99.90;;;;;;6204501;28;20214;-61
2022/06/27 03:03:07;;;;;;;5.63;5.13;;;21.90;99.90;;;;;;6225647;28;20323;-62
2022/06/27 03:06:12;;;;;;;10.13;6.10;;;21.90;99.90;;;;;;6205686;28;20260;-61
2022/06/27 03:09:15;;;;;;;6.30;5.37;;;21.90;99.90;;;;;;6224635;28;20566;-62
2022/06/27 03:12:20;;;;;;;5.57;5.17;;;21.90;99.90;;;;;;6206191;28;20232;-62
2022/06/27 03:15:23;;;;;;;5.77;5.10;;;21.80;99.90;;;;;;6223195;28;20725;-61
2022/06/27 03:18:26;;;;;;;5.80;5.40;;;21.80;99.90;;;;;;6207516;28;20244;-61
2022/06/27 03:21:29;;;;;;;4.90;4.60;;;21.80;99.90;;;;;;6222670;28;20288;-61
2022/06/27 03:24:32;;;;;;;5.90;5.23;;;21.80;99.90;;;;;;6208215;28;20229;-62
2022/06/27 03:27:37;;;;;;;5.90;5.40;;;21.80;99.90;;;;;;6221867;28;20230;-61
2022/06/27 03:30:41;;;;;;;6.43;5.40;;;21.80;99.90;;;;;;6210488;28;20233;-62
2022/06/27 03:33:44;;;;;;;6.07;5.47;;;21.80;99.90;;;;;;6220151;28;20595;-61
2022/06/27 03:36:48;;;;;;;5.60;5.10;;;21.80;99.90;;;;;;6209892;28;20225;-61
2022/06/27 03:39:52;;;;;;;5.57;5.17;;;21.80;99.90;;;;;;6218466;28;20238;-61
2022/06/27 03:42:56;;;;;;;5.13;4.73;;;21.80;99.90;;;;;;6210459;28;20542;-61
2022/06/27 03:45:59;;;;;;;6.10;5.50;;;21.80;99.90;;;;;;6226489;28;20229;-61
2022/06/27 03:52:24;;;;;;;5.83;5.40;;;21.80;99.90;;;;;;6202169;28;20234;-62
2022/06/27 03:55:27;;;;;;;6.10;5.50;;;21.90;99.90;;;;;;6201857;28;20644;-62
2022/06/27 03:58:32;;;;;;;5.40;5.00;;;21.90;99.90;;;;;;6202093;28;20240;-62
2022/06/27 04:01:35;;;;;;;5.80;5.40;;;21.90;99.90;;;;;;6201770;28;20230;-62
2022/06/27 04:04:38;;;;;;;6.60;6.10;;;22.00;99.90;;;;;;6201743;28;20256;-62
2022/06/27 04:07:42;;;;;;;6.40;5.80;;;22.00;99.90;;;;;;6237021;28;20235;-61
2022/06/27 04:10:45;;;;;;;6.33;5.83;;;22.10;99.90;;;;;;6227054;28;20560;-62
2022/06/27 04:13:49;;;;;;;6.00;5.60;;;22.10;99.90;;;;;;6241375;28;20240;-62
2022/06/27 04:16:53;;;;;;;5.83;5.43;;;22.00;99.90;;;;;;6225605;28;20221;-62
2022/06/27 04:19:56;;;;;;;5.83;5.33;;;22.10;99.90;;;;;;6230695;28;20247;-62
2022/06/27 04:22:59;;;;;;;6.90;6.23;;;22.10;99.90;;;;;;6227966;28;20665;-63
2022/06/27 04:26:02;;;;;;;10.40;5.27;;;22.10;99.90;;;;;;6208137;28;20697;-62
2022/06/27 04:29:07;;;;;;;7.00;6.27;;;22.10;99.90;;;;;;6219561;28;20225;-62
2022/06/27 04:32:11;;;;;;;7.03;6.17;;;22.20;99.90;;;;;;6228820;28;20228;-61
2022/06/27 04:35:14;;;;;;;6.53;6.00;;;22.40;99.90;;;;;;6238829;28;20216;-61
2022/06/27 04:38:20;;;;;;;7.90;5.97;;;22.50;99.90;;;;;;6217897;28;20229;-61
2022/06/27 04:41:23;;;;;;;7.47;5.73;;;22.60;99.90;;;;;;6209831;28;20667;-61
2022/06/27 04:44:28;;;;;;;6.17;5.77;;;22.80;99.90;;;;;;6221914;28;20692;-62
2022/06/27 04:47:31;;;;;;;7.60;5.07;;;22.90;99.90;;;;;;6236001;28;20304;-62
2022/06/27 04:50:36;;;;;;;6.13;5.60;;;23.00;99.90;;;;;;6237406;28;20217;-62
2022/06/27 04:53:39;;;;;;;6.37;5.80;;;23.20;99.90;;;;;;6217135;28;20229;-62
2022/06/27 04:56:43;;;;;;;6.77;6.17;;;23.30;99.90;;;;;;6206693;28;20550;-62
2022/06/27 04:59:49;;;;;;;6.40;5.80;;;23.40;99.90;;;;;;6223739;28;20236;-63
2022/06/27 05:02:52;;;;;;;6.30;5.73;;;23.60;99.90;;;;;;6226010;28;20228;-64
2022/06/27 05:05:56;;;;;;;6.10;5.70;;;23.70;99.90;;;;;;6200755;28;20548;-64
2022/06/27 05:09:00;;;;;;;6.27;5.73;;;23.80;99.90;;;;;;6202434;28;20512;-62
2022/06/27 05:12:03;;;;;;;6.67;5.90;;;23.90;99.90;;;;;;6224535;28;20669;-62
2022/06/27 05:15:09;;;;;;;6.87;6.07;;;24.10;99.90;;;;;;6202457;28;20220;-62
2022/06/27 05:18:15;;;;;;;6.60;6.10;;;24.20;99.90;;;;;;6225003;28;20209;-62
2022/06/27 05:21:18;;;;;;;6.70;6.10;;;24.40;99.90;;;;;;6221816;28;20238;-62
2022/06/27 05:24:21;;;;;;;6.50;6.00;;;24.50;99.90;;;;;;6204589;28;20240;-62
2022/06/27 05:27:26;;;;;;;10.10;5.90;;;24.50;99.90;;;;;;6227736;28;20233;-62
2022/06/27 05:30:31;;;;;;;6.23;5.73;;;24.70;99.90;;;;;;6232497;28;20665;-62
2022/06/27 05:33:34;;;;;;;6.17;5.70;;;24.80;99.90;;;;;;6220121;28;20229;-63
2022/06/27 05:36:38;;;;;;;6.20;5.30;;;25.00;99.90;;;;;;6235001;28;20666;-62
2022/06/27 05:39:45;;;;;;;5.20;4.70;;;25.20;99.90;;;;;;6221732;28;20251;-63
2022/06/27 05:42:48;;;;;;;5.47;5.07;;;25.30;99.90;;;;;;6233523;28;20327;-62
2022/06/27 05:45:54;;;;;;;8.10;5.23;;;25.50;99.90;;;;;;6217818;28;20228;-62
2022/06/27 05:48:57;;;;;;;5.67;5.17;;;25.60;99.90;;;;;;6225514;28;20363;-63
2022/06/27 05:52:00;;;;;;;5.93;5.43;;;25.60;99.90;;;;;;6220790;28;20233;-63
2022/06/27 05:55:05;;;;;;;5.63;5.00;;;25.70;99.90;;;;;;6214010;28;20557;-68
2022/06/27 05:58:10;;;;;;;5.57;5.10;;;25.90;99.90;;;;;;6228857;28;20248;-67
2022/06/27 06:01:14;;;;;;;5.70;5.30;;;26.00;99.90;;;;;;6214103;28;20226;-66
2022/06/27 06:04:18;;;;;;;5.77;5.27;;;26.10;99.90;;;;;;6215452;28;20232;-66
2022/06/27 06:07:22;;;;;;;6.20;5.80;;;26.30;99.90;;;;;;6229092;28;20239;-67
2022/06/27 06:10:26;;;;;;;6.67;5.57;;;26.50;99.60;;;;;;6217641;28;20638;-67
2022/06/27 06:13:29;;;;;;;5.80;5.30;;;26.90;99.00;;;;;;6217361;28;20240;-66
2022/06/27 06:16:33;;;;;;;7.97;6.60;;;27.20;98.10;;;;;;6216020;28;20240;-67
2022/06/27 06:19:37;;;;;;;6.20;5.13;;;27.80;97.70;;;;;;6218239;28;20657;-67
2022/06/27 06:22:41;;;;;;;5.37;4.90;;;28.40;96.90;;;;;;6214988;28;20233;-66
2022/06/27 06:25:44;;;;;;;5.10;4.70;;;29.10;95.40;;;;;;6218990;28;20241;-67
2022/06/27 06:28:49;;;;;;;5.03;4.73;;;29.50;94.60;;;;;;6213146;28;20224;-67
2022/06/27 06:31:54;;;;;;;5.83;5.30;;;30.00;93.50;;;;;;6219511;28;20653;-67
2022/06/27 06:35:06;;;;;;;4.60;4.30;;;30.80;92.10;;;;;;6210823;28;20229;-67
2022/06/27 06:38:10;;;;;;;6.70;5.60;;;31.20;90.40;;;;;;6222031;28;20235;-67
2022/06/27 06:41:14;;;;;;;6.30;5.43;;;31.10;90.00;;;;;;6227860;28;20681;-67
2022/06/27 06:44:18;;;;;;;5.55;5.13;;;31.40;88.70;;;;;;6209120;28;20237;-68
2022/06/27 06:47:22;;;;;;;5.43;4.80;;;31.60;87.30;;;;;;6223184;28;20232;-67
2022/06/27 06:50:26;;;;;;;5.68;5.18;;;32.50;85.00;;;;;;6207320;28;20221;-67
2022/06/27 06:53:29;;;;;;;5.18;4.80;;;32.80;82.20;;;;;;6224449;28;20261;-66
2022/06/27 06:56:33;;;;;;;4.97;4.30;;;33.40;80.40;;;;;;6206206;28;20355;-67
2022/06/27 06:59:37;;;;;;;5.93;4.70;;;34.00;77.50;;;;;;6225055;28;20245;-67
2022/06/27 07:02:43;;;;;;;5.22;4.68;;;34.50;74.70;;;;;;6205106;28;20244;-66
2022/06/27 07:05:46;;;;;;;6.05;4.72;;;34.90;73.10;;;;;;6217090;28;20244;-67
2022/06/27 07:08:50;;;;;;;5.38;4.97;;;35.30;71.30;;;;;;6208847;28;20233;-67
2022/06/27 07:11:55;;;;;;;4.47;4.18;;;35.20;69.70;;;;;;6237977;28;20548;-66
2022/06/27 07:15:00;;;;;;;4.93;4.43;;;35.70;68.00;;;;;;6205526;28;20225;-66
2022/06/27 07:18:05;;;;;;;5.20;4.82;;;36.30;66.60;;;;;;6204268;28;20205;-67
2022/06/27 07:21:09;;;;;;;5.22;4.82;;;36.90;64.50;;;;;;6238691;28;20216;-67
2022/06/27 07:24:12;;;;;;;6.97;4.88;;;37.20;61.60;;;;;;6215425;28;20297;-67
2022/06/27 07:27:16;;;;;;;5.32;4.35;;;37.30;61.10;;;;;;6235305;28;20244;-67
2022/06/27 07:30:20;;;;;;;5.20;4.80;;;37.50;60.10;;;;;;6219376;28;20231;-67
2022/06/27 07:33:25;;;;;;;7.40;5.60;;;38.20;58.90;;;;;;6237178;28;20221;-67
2022/06/27 07:36:28;;;;;;;5.50;4.40;;;38.80;57.30;;;;;;6220494;28;20301;-67
2022/06/27 07:39:32;;;;;;;4.68;4.28;;;38.50;56.80;;;;;;6233714;28;20224;-67
2022/06/27 07:42:37;;;;;;;4.93;4.53;;;38.50;56.30;;;;;;6217996;28;20236;-67
2022/06/27 07:45:41;;;;;;;5.57;5.18;;;37.90;56.80;;;;;;6236829;28;20224;-67
2022/06/27 07:48:46;;;;;;;5.90;5.43;;;37.80;56.60;;;;;;6230238;28;20224;-67
2022/06/27 07:51:49;;;;;;;5.80;5.20;;;37.50;56.50;;;;;;6229719;28;20209;-67
2022/06/27 07:54:53;;;;;;;5.53;5.03;;;37.10;57.90;;;;;;6223120;28;20220;-67
2022/06/27 07:57:56;;;;;;;6.35;5.45;;;36.70;57.90;;;;;;6234187;28;20900;-68
2022/06/27 08:01:00;;;;;;;5.40;5.00;;;36.10;59.10;;;;;;6238781;28;20236;-67
2022/06/27 08:04:06;;;;;;;5.38;4.97;;;35.60;60.10;;;;;;6229549;28;20247;-67
2022/06/27 08:07:09;;;;;;;6.47;5.85;;;34.90;61.40;;;;;;6208136;28;20225;-67
2022/06/27 08:10:12;;;;;;;6.30;5.72;;;34.50;62.50;;;;;;6222976;28;20228;-67
2022/06/27 08:13:15;;;;;;;5.05;4.57;;;34.30;62.80;;;;;;6227401;28;20228;-67
2022/06/27 08:16:20;;;;;;;6.13;5.10;;;33.90;62.70;;;;;;6224833;28;20621;-67
2022/06/27 08:57:01;;;;;;;5.53;5.10;;;32.50;64.80;;;;;;6302900;27;20598;-63
2022/06/27 09:00:06;;;;;;;7.32;6.00;;;32.60;65.50;;;;;;6274749;28;20223;-64
2022/06/27 09:03:09;;;;;;;5.75;5.35;;;32.50;63.40;;;;;;6282526;28;20223;-64
2022/06/27 09:06:14;;;;;;;6.28;5.70;;;31.80;65.30;;;;;;6295897;28;20549;-63
2022/06/27 09:09:17;;;;;;;5.97;5.38;;;31.80;66.40;;;;;;6293567;28;20308;-64
2022/06/27 09:12:23;;;;;;;5.97;5.43;;;32.10;67.30;;;;;;6303706;28;20218;-63
2022/06/27 09:15:45;;;;;;;6.63;5.90;;;32.20;66.50;;;;;;6309610;28;20237;-63
2022/06/27 09:18:49;;;;;;;6.10;5.60;;;32.30;67.00;;;;;;6304517;28;20233;-63
2022/06/27 09:22:15;;;;;;;6.78;5.22;;;32.50;66.40;;;;;;6314482;28;20221;-63
2022/06/27 09:25:20;;;;;;;5.45;5.05;;;32.40;66.10;;;;;;6303805;28;20722;-65
2022/06/27 09:28:39;;;;;;;5.15;4.75;;;32.50;65.30;;;;;;6295603;28;20227;-64
2022/06/27 09:31:45;;;;;;;5.38;4.80;;;32.60;65.20;;;;;;6295559;28;20705;-64
2022/06/27 09:34:48;;;;;;;5.07;4.68;;;32.80;65.60;;;;;;6295712;28;20231;-63
2022/06/27 09:37:53;;;;;;;7.40;5.72;;;33.00;65.00;;;;;;6295884;28;20226;-63
2022/06/27 09:40:56;;;;;;;6.25;5.75;;;33.00;64.10;;;;;;6295526;28;20230;-63
2022/06/27 09:44:06;;;;;;;6.10;5.53;;;33.10;64.80;;;;;;6295313;28;20222;-63
2022/06/27 09:47:12;;;;;;;6.10;5.50;;;32.80;65.40;;;;;;6295335;28;20249;-64
2022/06/27 09:50:16;;;;;;;6.45;5.95;;;32.90;64.90;;;;;;6295494;28;20241;-64
2022/06/27 09:53:26;;;;;;;6.28;5.88;;;32.90;66.20;;;;;;6297993;28;20704;-64
2022/06/27 09:56:32;;;;;;;7.00;6.40;;;32.80;67.60;;;;;;6319957;28;20722;-63
2022/06/27 09:59:37;;;;;;;5.53;5.13;;;32.90;66.50;;;;;;6319768;28;20547;-66
2022/06/27 10:02:40;;;;;;;6.50;6.00;;;33.10;66.50;;;;;;6320332;28;20256;-66
2022/06/27 10:05:45;;;;;;;10.88;6.80;;;33.30;67.00;;;;;;6296094;28;20241;-66
2022/06/27 10:08:50;;;;;;;6.57;6.07;;;33.10;67.80;;;;;;6277772;28;20238;-66
2022/06/27 10:12:21;;;;;;;6.35;5.63;;;32.90;68.50;;;;;;6278096;28;20242;-64
2022/06/27 10:15:30;;;;;;;6.57;5.93;;;33.00;68.30;;;;;;6285218;28;20227;-64
2022/06/27 10:18:51;;;;;;;6.25;5.65;;;33.00;67.70;;;;;;6275510;28;20223;-63
2022/06/27 10:21:56;;;;;;;6.15;5.65;;;32.90;68.60;;;;;;6253201;28;20228;-64
2022/06/27 10:25:42;;;;;;;6.53;6.13;;;32.70;69.20;;;;;;6263719;28;20227;-63
2022/06/27 10:28:46;;;;;;;6.13;5.65;;;32.60;69.50;;;;;;6277957;28;20734;-63
2022/06/27 10:31:50;;;;;;;7.45;6.38;;;32.50;70.30;;;;;;6288871;28;20226;-64
2022/06/27 10:35:11;;;;;;;6.70;6.00;;;32.90;70.30;;;;;;6302784;28;20250;-64
2022/06/27 10:38:25;;;;;;;5.95;5.40;;;33.10;69.00;;;;;;6302684;28;20231;-63
2022/06/27 10:41:41;;;;;;;6.97;6.40;;;33.30;69.60;;;;;;6302217;28;20242;-64
2022/06/27 10:44:44;;;;;;;6.03;5.45;;;33.20;67.70;;;;;;6302874;28;20237;-64
2022/06/27 10:47:50;;;;;;;6.18;5.68;;;32.70;68.80;;;;;;6301864;28;20227;-64
2022/06/27 10:50:53;;;;;;;5.65;5.25;;;33.00;68.30;;;;;;6302244;28;20226;-64
2022/06/27 10:54:11;;;;;;;5.45;5.15;;;33.20;67.90;;;;;;6301816;28;20299;-64
2022/06/27 10:57:14;;;;;;;6.90;6.32;;;33.40;67.50;;;;;;6301826;28;20241;-64
2022/06/27 11:00:36;;;;;;;6.75;6.22;;;33.60;66.10;;;;;;6302436;28;20253;-64
2022/06/27 11:03:41;;;;;;;6.22;5.72;;;33.80;64.00;;;;;;6283001;28;20223;-64
2022/06/27 11:06:55;;;;;;;5.97;5.38;;;33.50;62.90;;;;;;6290551;28;20207;-65
2022/06/27 11:09:59;;;;;;;6.05;5.30;;;33.10;65.10;;;;;;6287434;28;20518;-65
2022/06/27 11:13:02;;;;;;;7.15;6.55;;;33.10;65.70;;;;;;6287784;28;20219;-65
2022/06/27 11:16:06;;;;;;;7.07;6.57;;;33.20;66.80;;;;;;6290035;28;20227;-65
2022/06/27 11:22:28;;;;;;;7.18;6.57;;;33.00;67.30;;;;;;6301719;28;20557;-66
2022/06/27 11:25:32;;;;;;;7.20;6.47;;;33.20;67.60;;;;;;6302257;28;20245;-64
2022/06/27 11:32:01;;;;;;;6.95;6.30;;;33.40;66.80;;;;;;6302613;28;20227;-65
2022/06/27 11:35:13;;;;;;;7.45;6.60;;;33.40;67.60;;;;;;6302413;28;20246;-64
2022/06/27 11:38:32;;;;;;;6.35;5.85;;;33.60;67.70;;;;;;6306259;28;20235;-65
2022/06/27 11:41:39;;;;;;;8.68;6.70;;;33.70;67.30;;;;;;6307386;28;20237;-66
2022/06/27 11:45:05;;;;;;;7.30;6.60;;;33.70;66.70;;;;;;6306662;28;20242;-65
2022/06/27 11:48:15;;;;;;;6.88;6.28;;;33.70;65.40;;;;;;6303090;28;20245;-64
2022/06/27 11:51:26;;;;;;;6.65;6.07;;;33.90;64.80;;;;;;6300704;28;20227;-66
2022/06/27 11:54:38;;;;;;;7.78;7.07;;;33.80;64.30;;;;;;6300624;28;20239;-66
2022/06/27 11:57:46;;;;;;;7.30;6.00;;;33.80;65.00;;;;;;6301417;28;20446;-65
2022/06/27 12:00:49;;;;;;;6.97;6.50;;;33.90;65.10;;;;;;6308459;28;20194;-66
2022/06/27 12:04:11;;;;;;;9.65;7.35;;;33.70;65.90;;;;;;6306528;28;20232;-65
2022/06/27 12:07:16;;;;;;;9.07;7.75;;;33.60;67.60;;;;;;6306548;28;20235;-65
2022/06/27 12:10:35;;;;;;;11.30;8.00;;;33.60;68.50;;;;;;6290282;28;20325;-64
2022/06/27 12:13:40;;;;;;;8.15;7.35;;;33.60;68.70;;;;;;6275273;28;20227;-64
2022/06/27 12:16:48;;;;;;;7.65;6.95;;;33.50;66.90;;;;;;6275031;28;20257;-64
2022/06/27 12:20:03;;;;;;;9.13;7.32;;;33.30;68.00;;;;;;6275307;28;20231;-65
2022/06/27 12:23:08;;;;;;;8.80;7.68;;;33.20;68.70;;;;;;6275276;28;20570;-64
2022/06/27 12:26:11;;;;;;;8.20;7.38;;;33.20;68.10;;;;;;6276405;28;20227;-63
2022/06/27 12:29:14;;;;;;;7.88;7.25;;;32.90;69.20;;;;;;6274396;28;20235;-64
2022/06/27 12:32:17;;;;;;;7.70;7.10;;;32.90;69.30;;;;;;6275233;28;20237;-64
2022/06/27 12:35:21;;;;;;;7.10;6.50;;;32.90;69.50;;;;;;6274798;28;20261;-64
2022/06/27 12:38:25;;;;;;;6.95;6.45;;;32.90;69.10;;;;;;6275035;28;20246;-64
2022/06/27 12:41:29;;;;;;;8.75;7.32;;;33.00;68.90;;;;;;6274938;28;20705;-64
2022/06/27 12:44:32;;;;;;;7.82;7.10;;;33.10;68.00;;;;;;6274508;28;20227;-65
2022/06/27 12:47:35;;;;;;;8.05;7.50;;;33.10;67.70;;;;;;6275367;28;20712;-65
2022/06/27 12:50:38;;;;;;;9.35;7.80;;;33.20;67.50;;;;;;6277665;28;20231;-64
2022/06/27 12:53:43;;;;;;;7.70;7.07;;;33.20;68.60;;;;;;6299346;28;20272;-63
2022/06/27 12:56:47;;;;;;;8.05;7.40;;;33.20;68.70;;;;;;6299316;28;20585;-63
2022/06/27 12:59:50;;;;;;;7.85;7.10;;;33.20;69.20;;;;;;6274640;28;20237;-64
2022/06/27 13:02:53;;;;;;;7.82;7.00;;;33.20;68.30;;;;;;6274722;28;20242;-65
2022/06/27 13:06:03;;;;;;;8.90;7.28;;;33.30;68.40;;;;;;6274815;28;20560;-63
2022/06/27 13:09:08;;;;;;;7.78;7.07;;;33.40;68.20;;;;;;6274447;28;20690;-65
2022/06/27 13:12:12;;;;;;;8.30;7.50;;;33.40;67.60;;;;;;6274558;28;20246;-63
2022/06/27 13:15:16;;;;;;;7.60;7.00;;;33.60;67.30;;;;;;6274118;28;20234;-65
2022/06/27 13:18:19;;;;;;;6.60;5.97;;;33.70;66.20;;;;;;6274531;28;20235;-64
2022/06/27 13:21:22;;;;;;;7.32;6.20;;;33.60;66.10;;;;;;6274693;28;20230;-64
2022/06/27 13:24:27;;;;;;;7.63;7.03;;;33.30;66.50;;;;;;6274299;28;20700;-65
2022/06/27 13:27:30;;;;;;;7.88;7.28;;;33.20;66.10;;;;;;6273421;28;20576;-65
2022/06/27 13:30:34;;;;;;;7.93;7.00;;;33.30;65.60;;;;;;6274954;28;20316;-64
2022/06/27 13:33:37;;;;;;;7.75;7.03;;;33.30;66.00;;;;;;6274125;28;20203;-64
2022/06/27 13:36:40;;;;;;;7.60;6.93;;;33.20;65.50;;;;;;6274295;28;20235;-65
2022/06/27 13:39:45;;;;;;;7.90;6.32;;;33.20;66.10;;;;;;6274212;28;20522;-64
2022/06/27 13:42:48;;;;;;;9.07;7.22;;;33.40;65.00;;;;;;6277385;28;20217;-64
2022/06/27 13:45:51;;;;;;;8.43;7.63;;;33.30;64.80;;;;;;6278738;28;20226;-64
2022/06/27 13:48:54;;;;;;;7.72;7.13;;;33.20;64.50;;;;;;6278981;28;20565;-64
2022/06/27 13:51:58;;;;;;;7.10;6.50;;;33.30;64.40;;;;;;6291969;28;20557;-64
2022/06/27 13:55:02;;;;;;;8.20;6.45;;;33.50;63.50;;;;;;6303269;28;20665;-64
2022/06/27 13:58:06;;;;;;;7.25;6.57;;;33.40;63.30;;;;;;6303799;28;20542;-64
2022/06/27 14:01:23;;;;;;;6.43;5.82;;;33.10;65.50;;;;;;6303475;28;20321;-64
2022/06/27 14:04:26;;;;;;;6.78;6.03;;;33.20;64.60;;;;;;6303514;28;20305;-66
2022/06/27 14:07:40;;;;;;;7.47;6.00;;;33.20;64.00;;;;;;6304071;28;20238;-64
2022/06/27 14:10:56;;;;;;;8.05;6.82;;;33.00;65.20;;;;;;6304178;28;20300;-65
2022/06/27 14:14:00;;;;;;;10.35;6.80;;;33.10;65.80;;;;;;6303204;28;20237;-65
2022/06/27 14:17:03;;;;;;;7.85;7.05;;;33.20;66.50;;;;;;6303293;28;20241;-65
2022/06/27 14:20:09;;;;;;;7.78;7.07;;;33.00;66.10;;;;;;6303169;28;20268;-66
2022/06/27 14:23:12;;;;;;;8.98;6.32;;;33.10;65.90;;;;;;6304751;28;20238;-65
2022/06/27 14:26:17;;;;;;;7.03;5.75;;;33.30;65.20;;;;;;6303559;28;20231;-65
2022/06/27 14:29:21;;;;;;;7.90;7.07;;;33.30;67.00;;;;;;6302827;28;20230;-66
2022/06/27 14:32:24;;;;;;;9.38;6.80;;;33.30;65.60;;;;;;6302715;28;20226;-66
2022/06/27 14:35:27;;;;;;;6.93;6.20;;;33.20;66.10;;;;;;6302710;28;20237;-66
2022/06/27 14:38:30;;;;;;;7.65;6.30;;;32.90;66.60;;;;;;6302677;28;20241;-66
2022/06/27 14:41:35;;;;;;;8.15;6.82;;;32.90;67.30;;;;;;6296199;28;20234;-66
2022/06/27 14:44:38;;;;;;;8.45;6.72;;;33.10;67.60;;;;;;6285577;28;20233;-66
2022/06/27 14:47:42;;;;;;;6.82;6.32;;;33.40;66.40;;;;;;6277554;28;20230;-64
2022/06/27 14:50:45;;;;;;;6.90;6.30;;;33.50;66.30;;;;;;6280734;28;20218;-65
2022/06/27 14:53:48;;;;;;;7.25;6.53;;;33.60;65.80;;;;;;6302285;28;20218;-65
2022/06/27 14:57:01;;;;;;;6.75;6.15;;;33.70;65.90;;;;;;6302250;28;20752;-65
2022/06/27 15:00:05;;;;;;;6.55;6.05;;;33.80;64.60;;;;;;6307919;28;20240;-65
2022/06/27 15:03:08;;;;;;;7.32;6.63;;;33.80;64.70;;;;;;6300546;28;20226;-65
2022/06/27 15:06:11;;;;;;;8.95;6.88;;;33.70;65.30;;;;;;6299706;28;20705;-64
2022/06/27 15:09:14;;;;;;;10.77;6.28;;;33.70;65.40;;;;;;6299566;28;20242;-65
2022/06/27 15:12:19;;;;;;;8.43;6.25;;;33.80;64.90;;;;;;6299844;28;20262;-65
2022/06/27 15:15:25;;;;;;;7.10;6.38;;;34.10;65.10;;;;;;6291029;28;20235;-65
2022/06/27 15:18:28;;;;;;;7.15;6.43;;;34.10;64.30;;;;;;6276656;28;20540;-65
2022/06/27 15:21:31;;;;;;;9.20;6.43;;;34.00;64.60;;;;;;6285823;28;20223;-65
2022/06/27 15:24:55;;;;;;;6.60;5.90;;;33.70;64.70;;;;;;6291967;28;20227;-64
2022/06/27 15:28:00;;;;;;;12.77;7.78;;;33.40;65.50;;;;;;6290996;28;20233;-66
2022/06/27 15:31:03;;;;;;;5.70;5.22;;;33.60;65.50;;;;;;6276755;28;20234;-64
2022/06/27 15:34:07;;;;;;;12.77;6.50;;;33.70;65.70;;;;;;6297449;28;20237;-65
2022/06/27 15:37:10;;;;;;;7.50;6.28;;;33.70;65.90;;;;;;6301294;28;20226;-65
2022/06/27 15:40:13;;;;;;;9.27;6.25;;;33.70;65.80;;;;;;6301942;28;20234;-66
2022/06/27 15:43:18;;;;;;;10.88;6.20;;;33.70;64.40;;;;;;6280355;28;20227;-66
2022/06/27 15:46:21;;;;;;;7.50;6.80;;;33.80;64.50;;;;;;6279270;28;20231;-65
2022/06/27 15:49:25;;;;;;;7.22;6.32;;;33.80;64.50;;;;;;6277517;28;20330;-65
2022/06/27 15:52:29;;;;;;;10.98;6.70;;;33.60;64.70;;;;;;6276534;28;20223;-64
2022/06/27 15:55:32;;;;;;;11.18;6.78;;;33.40;66.20;;;;;;6296929;28;20248;-65
2022/06/27 15:58:37;;;;;;;6.90;6.30;;;33.50;66.20;;;;;;6300683;28;20239;-65
2022/06/27 16:01:40;;;;;;;8.23;5.85;;;33.60;65.60;;;;;;6292209;28;20242;-65
2022/06/27 16:04:43;;;;;;;7.90;6.43;;;33.50;65.70;;;;;;6287393;28;20557;-65
2022/06/27 16:07:46;;;;;;;10.30;7.38;;;33.40;66.70;;;;;;6291409;28;20551;-65
2022/06/27 16:10:50;;;;;;;9.55;7.20;;;33.50;66.40;;;;;;6280846;28;20246;-65
2022/06/27 16:13:55;;;;;;;10.02;7.28;;;33.50;66.50;;;;;;6282448;28;20222;-66
2022/06/27 16:16:58;;;;;;;6.47;5.88;;;33.70;66.30;;;;;;6284491;28;20233;-65
2022/06/27 16:20:07;;;;;;;7.78;6.38;;;33.70;65.90;;;;;;6293648;28;20249;-65
2022/06/27 16:23:14;;;;;;;8.70;7.10;;;33.70;66.60;;;;;;6293592;28;20237;-65
2022/06/27 16:26:17;;;;;;;10.35;6.47;;;33.40;66.90;;;;;;6285378;28;20668;-65
2022/06/27 16:29:22;;;;;;;9.07;7.15;;;33.40;67.50;;;;;;6299739;28;20221;-65
2022/06/27 16:32:25;;;;;;;10.20;6.85;;;33.20;68.30;;;;;;6275659;28;20227;-65
2022/06/27 16:35:28;;;;;;;7.85;7.05;;;33.20;68.30;;;;;;6275178;28;20234;-65
2022/06/27 16:38:32;;;;;;;7.35;6.65;;;33.30;68.50;;;;;;6274248;28;20241;-65
2022/06/27 16:44:53;;;;;;;8.80;6.22;;;33.30;68.30;;;;;;6273184;28;20690;-65
2022/06/27 16:47:57;;;;;;;9.55;6.70;;;33.30;68.80;;;;;;6273377;28;20227;-66
2022/06/27 16:51:01;;;;;;;8.50;5.88;;;33.20;69.20;;;;;;6273228;28;20227;-65
2022/06/27 16:54:05;;;;;;;8.27;6.13;;;33.00;69.70;;;;;;6282510;28;20280;-65